createdAt,value
2023-05-05T00:18:57.110Z,101237.63
2023-05-05T00:49:00.265Z,101239.84
2023-05-05T01:19:04.323Z,101234.80
2023-05-05T01:49:07.503Z,101226.22
2023-05-05T02:19:10.419Z,101235.70
2023-05-05T02:49:14.177Z,101225.73
2023-05-05T03:19:18.196Z,101253.22
2023-05-05T03:49:21.420Z,101244.86
2023-05-05T04:19:24.510Z,101253.50
2023-05-05T04:49:27.804Z,101288.04
2023-05-05T05:19:32.301Z,101305.08
2023-05-05T05:49:35.082Z,101327.79
2023-05-05T06:19:38.465Z,101336.05
2023-05-05T06:49:41.363Z,101337.03
2023-05-05T07:19:45.292Z,101326.33
2023-05-05T07:49:48.101Z,101332.44
2023-05-05T08:19:51.732Z,101346.95
2023-05-05T08:49:54.698Z,101352.41
2023-05-05T09:19:58.184Z,101348.95
2023-05-05T09:50:01.523Z,101363.81
2023-05-05T10:20:05.910Z,101351.21
2023-05-05T10:50:09.802Z,101318.09
2023-05-05T11:20:13.356Z,101284.30
2023-05-05T11:50:16.803Z,101267.43
2023-05-05T12:20:20.219Z,101268.44
2023-05-05T12:50:23.230Z,101256.77
2023-05-05T13:20:26.513Z,101229.07
2023-05-05T13:50:29.406Z,101213.78
2023-05-05T14:20:32.895Z,101197.13
2023-05-05T14:50:35.758Z,101190.38
2023-05-05T15:20:39.151Z,101172.88
2023-05-05T15:50:42.066Z,101194.89
2023-05-05T16:20:45.944Z,101171.20
2023-05-05T16:50:49.042Z,101168.45
2023-05-05T17:20:52.709Z,101181.09
2023-05-05T17:50:55.582Z,101196.41
2023-05-05T18:20:59.157Z,101203.65
2023-05-05T18:51:02.029Z,101221.12
2023-05-05T19:21:05.736Z,101204.13
2023-05-05T19:51:08.740Z,101204.02
2023-05-05T20:21:11.721Z,101221.41
2023-05-05T20:51:14.734Z,101208.23
2023-05-05T21:21:17.737Z,101187.06
2023-05-05T21:51:21.266Z,101168.45
2023-05-05T22:21:24.212Z,101155.11
2023-05-05T22:51:27.692Z,101132.49
2023-05-05T23:21:33.987Z,101137.25
2023-05-05T23:51:39.801Z,101099.92
